Time;durP1;ratioP1;P1;durP2;ratioP2;P2;SDS_P1;SDS_P2;PMS_P1;PMS_P2;Temp;Humidity;BMP_temperature;BMP_pressure;BME280_temperature;BME280_humidity;BME280_pressure;Samples;Min_cycle;Max_cycle;Signal;HPM_P1;HPM_P2
2023/09/01 00:02:21;;;;;;;3.53;2.23;;;13.00;1.00;;;;;;5065640;28;20460;-80
2023/09/01 00:04:48;;;;;;;3.00;2.80;;;13.00;1.00;;;;;;5051439;28;20468;-80
2023/09/01 00:07:15;;;;;;;2.70;2.50;;;13.00;1.00;;;;;;5058532;28;20945;-79
2023/09/01 00:09:43;;;;;;;2.37;2.23;;;12.90;1.00;;;;;;5063450;27;20571;-80
2023/09/01 00:12:10;;;;;;;2.43;2.23;;;12.90;1.00;;;;;;5062295;28;20464;-80
2023/09/01 00:14:37;;;;;;;2.67;2.47;;;12.90;1.00;;;;;;5066683;27;20459;-81
2023/09/01 00:17:04;;;;;;;2.70;2.50;;;12.90;1.00;;;;;;5064849;28;20463;-81
2023/09/01 00:19:31;;;;;;;4.30;2.40;;;12.90;1.00;;;;;;5049422;28;20511;-81
2023/09/01 00:21:58;;;;;;;3.23;3.00;;;12.90;1.00;;;;;;5052387;28;21369;-81
2023/09/01 00:24:25;;;;;;;3.00;2.80;;;12.90;1.00;;;;;;5050318;28;20488;-80
2023/09/01 00:26:53;;;;;;;2.83;2.40;;;12.90;1.00;;;;;;5043719;28;20590;-80
2023/09/01 00:29:21;;;;;;;2.47;2.27;;;12.90;1.00;;;;;;5041829;28;21033;-81
2023/09/01 00:31:48;;;;;;;2.83;2.40;;;12.90;1.00;;;;;;5049605;28;20524;-80
2023/09/01 00:34:15;;;;;;;3.13;2.87;;;12.80;1.00;;;;;;5043701;28;20461;-81
2023/09/01 00:36:42;;;;;;;2.90;2.57;;;12.90;1.00;;;;;;5049552;28;20567;-80
2023/09/01 00:39:09;;;;;;;3.40;2.87;;;12.90;1.00;;;;;;5041976;28;20472;-80
2023/09/01 00:41:36;;;;;;;2.73;2.30;;;12.90;1.00;;;;;;5048322;28;20471;-80
2023/09/01 00:44:05;;;;;;;3.80;3.07;;;12.90;1.00;;;;;;5062726;28;20501;-80
2023/09/01 00:46:33;;;;;;;2.97;2.77;;;12.80;1.00;;;;;;5047301;28;20953;-80
2023/09/01 00:49:00;;;;;;;3.30;2.83;;;12.80;1.00;;;;;;5040980;28;20463;-80
2023/09/01 00:51:28;;;;;;;4.73;2.77;;;12.80;1.00;;;;;;5044050;28;20461;-80
2023/09/01 00:53:56;;;;;;;3.20;2.57;;;12.80;1.00;;;;;;5047025;28;20466;-80
2023/09/01 00:56:23;;;;;;;3.00;2.50;;;12.80;1.00;;;;;;5053339;28;20472;-78
2023/09/01 00:58:50;;;;;;;2.83;2.63;;;12.80;1.00;;;;;;5046611;28;20551;-78
2023/09/01 01:01:19;;;;;;;2.63;2.43;;;12.80;1.00;;;;;;5048877;28;20499;-78
2023/09/01 01:03:51;;;;;;;2.50;2.30;;;12.80;1.00;;;;;;5057132;28;20459;-78
2023/09/01 01:06:26;;;;;;;3.33;2.43;;;12.80;1.00;;;;;;5051738;28;20464;-80
2023/09/01 01:09:02;;;;;;;2.97;2.67;;;12.80;1.00;;;;;;5097575;27;20471;-80
2023/09/01 01:11:35;;;;;;;4.10;2.40;;;12.70;1.00;;;;;;5069106;28;20457;-80
2023/09/01 01:14:09;;;;;;;3.10;2.80;;;12.70;1.00;;;;;;5065738;28;21037;-80
2023/09/01 01:16:38;;;;;;;3.40;2.73;;;12.60;1.00;;;;;;5065782;28;20596;-80
2023/09/01 01:19:16;;;;;;;2.80;2.60;;;12.60;1.00;;;;;;5068841;27;20477;-80
2023/09/01 01:21:48;;;;;;;3.10;2.90;;;12.60;1.00;;;;;;5068534;28;21213;-80
2023/09/01 01:24:16;;;;;;;3.27;2.97;;;12.60;1.00;;;;;;5070007;27;20467;-80
2023/09/01 01:26:43;;;;;;;3.70;3.40;;;12.60;1.00;;;;;;5069352;27;20447;-80
2023/09/01 01:29:10;;;;;;;4.60;3.50;;;12.60;1.00;;;;;;5066549;28;20653;-80
2023/09/01 01:31:38;;;;;;;3.47;3.07;;;12.60;1.00;;;;;;5065186;28;20436;-80
2023/09/01 01:34:14;;;;;;;3.40;3.10;;;12.60;1.00;;;;;;5043636;28;21491;-81
2023/09/01 01:36:49;;;;;;;3.43;3.13;;;12.60;1.00;;;;;;5064344;27;20567;-81
2023/09/01 01:39:25;;;;;;;3.37;2.90;;;12.50;1.00;;;;;;5047206;28;22677;-81
2023/09/01 01:41:55;;;;;;;4.93;4.63;;;12.40;1.00;;;;;;5044313;28;20468;-80
2023/09/01 01:44:26;;;;;;;4.70;4.30;;;12.40;1.00;;;;;;5061749;28;20517;-80
2023/09/01 01:46:54;;;;;;;4.77;3.83;;;12.40;1.00;;;;;;5066515;28;20876;-82
2023/09/01 01:49:21;;;;;;;4.47;4.07;;;12.40;1.00;;;;;;5066207;28;20470;-81
2023/09/01 01:51:48;;;;;;;5.00;4.60;;;12.40;1.00;;;;;;5070073;28;20488;-80
2023/09/01 01:54:17;;;;;;;5.00;4.50;;;12.40;1.00;;;;;;5064989;28;20464;-79
2023/09/01 01:56:44;;;;;;;4.20;3.80;;;12.30;1.00;;;;;;5052652;28;20472;-81
2023/09/01 01:59:13;;;;;;;6.30;4.37;;;12.30;1.00;;;;;;5066577;28;20581;-79
2023/09/01 02:01:40;;;;;;;5.07;4.30;;;12.30;1.00;;;;;;5069813;28;20451;-79
2023/09/01 02:04:07;;;;;;;7.03;3.90;;;12.30;1.00;;;;;;5060888;27;20553;-80
2023/09/01 02:06:34;;;;;;;4.30;3.90;;;12.20;1.00;;;;;;5068289;28;20451;-81
2023/09/01 02:09:02;;;;;;;4.20;3.90;;;12.20;1.00;;;;;;5064623;27;20500;-81
2023/09/01 02:11:30;;;;;;;4.10;3.53;;;12.20;1.00;;;;;;5061125;28;20474;-80
2023/09/01 02:13:58;;;;;;;5.00;3.30;;;12.10;1.00;;;;;;5047546;28;20429;-81
2023/09/01 02:16:25;;;;;;;3.90;3.60;;;12.10;1.00;;;;;;5041093;28;20489;-84
2023/09/01 02:18:52;;;;;;;3.70;3.40;;;12.10;1.00;;;;;;5052974;28;20507;-81
2023/09/01 02:21:20;;;;;;;4.10;3.70;;;12.10;1.00;;;;;;5048362;28;20451;-83
2023/09/01 02:23:47;;;;;;;3.93;3.63;;;12.10;1.00;;;;;;5045195;28;20474;-81
2023/09/01 02:26:18;;;;;;;5.60;4.00;;;12.10;1.00;;;;;;5044692;28;21188;-79
2023/09/01 02:28:46;;;;;;;4.17;3.87;;;12.10;1.00;;;;;;5045602;28;20596;-81
2023/09/01 02:31:14;;;;;;;4.50;4.10;;;12.10;1.00;;;;;;5043549;28;20453;-82
2023/09/01 02:33:41;;;;;;;4.00;3.70;;;12.00;1.00;;;;;;5045330;28;20456;-80
2023/09/01 02:36:27;;;;;;;4.10;3.70;;;12.00;1.00;;;;;;5043957;28;20515;-82
2023/09/01 02:38:54;;;;;;;4.70;4.30;;;12.00;1.00;;;;;;5064243;27;22170;-82
2023/09/01 02:41:23;;;;;;;4.63;4.23;;;11.90;1.00;;;;;;5064490;27;20539;-82
2023/09/01 02:43:52;;;;;;;5.37;4.50;;;11.90;1.00;;;;;;5062276;28;20455;-82
2023/09/01 02:46:19;;;;;;;7.40;4.37;;;11.90;1.00;;;;;;5068069;28;20423;-82
2023/09/01 02:48:47;;;;;;;4.43;4.03;;;11.90;1.00;;;;;;5062916;28;20495;-81
2023/09/01 02:51:14;;;;;;;4.73;3.93;;;11.80;1.00;;;;;;5065930;27;20464;-82
2023/09/01 02:53:42;;;;;;;4.27;3.97;;;11.80;1.00;;;;;;5069762;28;20445;-81
2023/09/01 02:56:09;;;;;;;4.00;3.70;;;11.80;1.00;;;;;;5065641;27;20460;-84
2023/09/01 02:58:36;;;;;;;5.27;4.20;;;11.80;1.00;;;;;;5054294;28;20484;-79
2023/09/01 03:01:08;;;;;;;4.53;4.13;;;11.80;1.00;;;;;;5065894;28;20968;-83
2023/09/01 03:03:36;;;;;;;5.20;3.90;;;11.70;1.00;;;;;;5067520;28;20998;-83
2023/09/01 03:06:05;;;;;;;6.60;4.97;;;11.80;1.00;;;;;;5069615;28;20452;-83
2023/09/01 03:08:32;;;;;;;4.83;4.43;;;11.80;1.00;;;;;;5066496;27;20856;-83
2023/09/01 03:10:59;;;;;;;4.67;4.27;;;11.80;1.00;;;;;;5057010;28;20894;-84
2023/09/01 03:13:28;;;;;;;4.17;3.77;;;11.80;1.00;;;;;;5070342;28;20502;-83
2023/09/01 03:15:55;;;;;;;5.83;4.87;;;11.70;1.00;;;;;;5067237;28;20534;-83
2023/09/01 03:18:24;;;;;;;5.17;4.73;;;11.70;1.00;;;;;;5074117;28;23188;-82
2023/09/01 03:20:53;;;;;;;4.40;4.03;;;11.80;1.00;;;;;;5078474;28;20475;-78
2023/09/01 03:23:20;;;;;;;5.80;5.23;;;11.80;1.00;;;;;;5067366;28;20470;-82
2023/09/01 03:25:53;;;;;;;5.97;5.20;;;11.70;1.00;;;;;;5069716;28;20479;-77
2023/09/01 03:28:23;;;;;;;6.00;5.37;;;11.70;1.00;;;;;;5064997;28;20482;-78
2023/09/01 03:30:51;;;;;;;5.53;4.90;;;11.70;1.00;;;;;;5064485;28;20937;-76
2023/09/01 03:33:19;;;;;;;5.63;5.13;;;11.70;1.00;;;;;;5063808;27;20465;-77
2023/09/01 03:35:48;;;;;;;6.30;5.20;;;11.80;1.00;;;;;;5066489;27;20471;-78
2023/09/01 03:38:15;;;;;;;5.87;5.17;;;11.80;1.00;;;;;;5066354;27;20518;-78
2023/09/01 03:40:42;;;;;;;10.40;5.60;;;11.80;1.00;;;;;;5064141;27;20543;-78
2023/09/01 03:43:09;;;;;;;6.50;5.40;;;11.70;1.00;;;;;;5045854;28;21049;-77
2023/09/01 03:45:36;;;;;;;7.03;6.53;;;11.70;1.00;;;;;;5060604;28;20472;-79
2023/09/01 03:48:04;;;;;;;5.20;4.80;;;11.70;1.00;;;;;;5068812;28;20994;-78
2023/09/01 03:50:37;;;;;;;5.13;4.63;;;11.70;1.00;;;;;;5066325;27;20910;-77
2023/09/01 03:53:06;;;;;;;5.80;5.30;;;11.70;1.00;;;;;;5045272;28;20472;-78
2023/09/01 03:55:33;;;;;;;5.87;5.33;;;11.70;1.00;;;;;;5046486;28;20461;-78
2023/09/01 03:58:00;;;;;;;5.87;5.37;;;11.70;1.00;;;;;;5053636;28;21280;-77
2023/09/01 04:00:28;;;;;;;6.20;5.80;;;11.70;1.00;;;;;;5061395;28;20543;-78
2023/09/01 04:02:55;;;;;;;7.33;6.60;;;11.70;1.00;;;;;;5061117;27;20460;-78
2023/09/01 04:05:22;;;;;;;6.30;5.90;;;11.70;1.00;;;;;;5057740;28;20460;-77
2023/09/01 04:07:49;;;;;;;6.13;5.63;;;11.60;1.00;;;;;;5056177;28;20489;-79
2023/09/01 04:10:17;;;;;;;5.93;5.33;;;11.60;1.00;;;;;;5044551;28;21004;-78
2023/09/01 04:12:47;;;;;;;6.40;5.80;;;11.70;1.00;;;;;;5046560;28;20564;-79
2023/09/01 04:15:15;;;;;;;6.50;6.00;;;11.60;1.00;;;;;;5039546;28;21105;-78
2023/09/01 04:17:42;;;;;;;6.83;6.23;;;11.60;1.00;;;;;;5043390;28;20483;-79
2023/09/01 04:20:10;;;;;;;7.10;6.50;;;11.60;1.00;;;;;;5040441;28;20515;-79
2023/09/01 04:22:37;;;;;;;6.03;5.50;;;11.50;1.00;;;;;;5044197;28;20465;-78
2023/09/01 04:25:06;;;;;;;6.70;6.27;;;11.50;1.00;;;;;;5046570;28;20468;-78
2023/09/01 04:27:34;;;;;;;6.40;5.83;;;11.40;1.00;;;;;;5044928;28;20651;-76
2023/09/01 04:30:02;;;;;;;7.47;6.63;;;11.40;1.00;;;;;;5041784;28;20420;-76
2023/09/01 04:32:30;;;;;;;6.60;6.00;;;11.40;1.00;;;;;;5042499;28;21055;-78
2023/09/01 04:34:57;;;;;;;7.10;6.40;;;11.40;1.00;;;;;;5054563;27;21223;-77
2023/09/01 04:37:26;;;;;;;8.20;6.20;;;11.40;1.00;;;;;;5060183;28;20549;-77
2023/09/01 04:39:52;;;;;;;6.83;6.23;;;11.40;1.00;;;;;;5064471;28;20554;-79
2023/09/01 04:42:22;;;;;;;6.53;5.70;;;11.40;1.00;;;;;;5068122;28;20533;-79
2023/09/01 04:44:51;;;;;;;7.07;6.37;;;11.40;1.00;;;;;;5065040;27;20489;-77
2023/09/01 04:47:18;;;;;;;6.93;5.90;;;11.40;1.00;;;;;;5062707;28;20492;-79
2023/09/01 04:49:45;;;;;;;7.57;6.60;;;11.40;1.00;;;;;;5040938;28;20449;-77
2023/09/01 04:52:12;;;;;;;7.23;6.57;;;11.40;1.00;;;;;;5046460;28;20469;-78
2023/09/01 04:54:40;;;;;;;6.90;6.27;;;11.40;1.00;;;;;;5043442;28;20456;-77
2023/09/01 04:57:07;;;;;;;7.17;6.57;;;11.40;1.00;;;;;;5044190;28;20576;-78
2023/09/01 04:59:34;;;;;;;7.67;7.03;;;11.40;1.00;;;;;;5058214;28;21273;-78
2023/09/01 05:02:02;;;;;;;7.70;6.97;;;11.50;1.00;;;;;;5048029;28;20469;-78
2023/09/01 05:04:29;;;;;;;7.50;6.57;;;11.50;1.00;;;;;;5043284;28;20471;-79
2023/09/01 05:06:56;;;;;;;6.90;6.23;;;11.50;1.00;;;;;;5058857;28;20478;-78
2023/09/01 05:09:24;;;;;;;8.13;7.40;;;11.60;1.00;;;;;;5061676;28;20460;-78
2023/09/01 05:11:51;;;;;;;8.30;7.07;;;11.60;1.00;;;;;;5061793;28;20490;-79
2023/09/01 05:14:24;;;;;;;6.03;5.40;;;11.60;1.00;;;;;;5062899;28;20578;-78
2023/09/01 05:16:58;;;;;;;8.40;7.07;;;11.70;1.00;;;;;;5080173;27;20514;-80
2023/09/01 05:19:35;;;;;;;7.87;7.07;;;11.70;1.00;;;;;;5056289;28;20447;-80
2023/09/01 05:22:14;;;;;;;7.60;7.00;;;11.80;1.00;;;;;;5062202;28;20472;-79
2023/09/01 05:24:41;;;;;;;7.30;6.57;;;11.80;1.00;;;;;;5068432;28;20451;-78
2023/09/01 05:27:08;;;;;;;6.40;5.90;;;11.80;1.00;;;;;;5060168;28;20483;-78
2023/09/01 05:29:35;;;;;;;6.20;5.70;;;11.80;1.00;;;;;;5055638;28;20511;-78
2023/09/01 05:32:04;;;;;;;7.93;7.23;;;11.80;1.00;;;;;;5056152;28;20545;-78
2023/09/01 05:34:32;;;;;;;7.93;7.10;;;11.90;1.00;;;;;;5058214;27;20462;-77
2023/09/01 05:36:59;;;;;;;6.90;6.23;;;11.90;1.00;;;;;;5063305;28;20487;-87
2023/09/01 05:39:27;;;;;;;7.27;6.67;;;12.00;1.00;;;;;;5067583;27;20578;-86
2023/09/01 05:41:55;;;;;;;8.37;6.50;;;12.10;1.00;;;;;;5045430;28;20457;-86
2023/09/01 05:44:25;;;;;;;7.00;6.40;;;12.10;1.00;;;;;;5073679;28;20439;-87
2023/09/01 05:46:52;;;;;;;7.47;6.80;;;12.20;1.00;;;;;;5066881;28;20591;-86
2023/09/01 05:49:26;;;;;;;6.30;5.80;;;12.20;1.00;;;;;;5058317;28;20629;-87
2023/09/01 05:51:55;;;;;;;7.60;6.97;;;12.30;1.00;;;;;;5058490;28;20432;-87
2023/09/01 05:54:22;;;;;;;6.63;6.07;;;12.40;1.00;;;;;;5060213;28;20446;-85
2023/09/01 05:56:50;;;;;;;7.00;6.40;;;12.50;1.00;;;;;;5056784;28;20472;-86
2023/09/01 05:59:17;;;;;;;6.57;5.97;;;12.60;1.00;;;;;;5053013;28;20452;-85
2023/09/01 06:01:46;;;;;;;6.63;6.03;;;12.70;1.00;;;;;;5055580;28;20420;-85
2023/09/01 06:04:13;;;;;;;7.13;6.43;;;12.70;1.00;;;;;;5066847;27;20460;-78
2023/09/01 06:06:40;;;;;;;7.03;6.43;;;12.80;1.00;;;;;;5046261;28;21029;-76
2023/09/01 06:09:09;;;;;;;7.33;5.80;;;12.90;1.00;;;;;;5046323;28;20467;-77
2023/09/01 06:11:37;;;;;;;6.80;5.90;;;13.00;1.00;;;;;;5046186;28;20906;-77
2023/09/01 06:14:06;;;;;;;5.70;5.20;;;13.10;1.00;;;;;;5044995;28;20454;-77
2023/09/01 06:16:33;;;;;;;10.70;6.23;;;13.20;1.00;;;;;;5049903;28;21087;-82
2023/09/01 06:19:00;;;;;;;6.90;5.97;;;13.30;1.00;;;;;;5048610;28;20456;-78
2023/09/01 06:21:28;;;;;;;6.63;6.03;;;13.30;1.00;;;;;;5045636;28;20645;-77
2023/09/01 06:23:55;;;;;;;5.80;5.30;;;13.40;1.00;;;;;;5057773;28;20459;-77
2023/09/01 06:26:23;;;;;;;5.93;5.43;;;13.50;1.00;;;;;;5066627;28;20500;-77
2023/09/01 06:28:50;;;;;;;5.90;5.30;;;13.60;1.00;;;;;;5062173;28;20442;-77
2023/09/01 06:31:17;;;;;;;7.10;5.57;;;13.70;1.00;;;;;;5047425;28;20544;-77
2023/09/01 06:33:46;;;;;;;6.33;5.73;;;13.80;1.00;;;;;;5045774;28;20494;-78
2023/09/01 06:36:14;;;;;;;6.63;6.03;;;13.80;1.00;;;;;;5048336;28;20469;-79
2023/09/01 06:38:41;;;;;;;5.83;5.30;;;13.80;1.00;;;;;;5048710;28;20939;-79
2023/09/01 06:41:09;;;;;;;5.43;4.60;;;14.00;1.00;;;;;;5052424;28;20483;-79
2023/09/01 06:43:40;;;;;;;7.60;5.83;;;14.00;1.00;;;;;;5070409;28;20500;-79
2023/09/01 06:46:07;;;;;;;5.43;4.80;;;14.00;1.00;;;;;;5066433;27;20489;-79
2023/09/01 06:48:35;;;;;;;7.30;5.20;;;14.10;1.00;;;;;;5072475;28;20471;-79
2023/09/01 06:51:02;;;;;;;5.90;5.40;;;14.10;1.00;;;;;;5066578;28;20463;-79
2023/09/01 06:53:33;;;;;;;5.93;5.40;;;14.20;1.00;;;;;;5071161;28;21026;-78
2023/09/01 06:56:00;;;;;;;6.80;6.20;;;14.30;1.00;;;;;;5066727;28;20850;-80
2023/09/01 06:58:27;;;;;;;7.23;6.27;;;14.40;1.00;;;;;;5063788;28;20450;-79
2023/09/01 07:00:57;;;;;;;6.03;5.40;;;14.60;1.00;;;;;;5062132;28;20544;-79
2023/09/01 07:03:25;;;;;;;6.57;6.03;;;14.70;1.00;;;;;;5065092;28;20483;-80
2023/09/01 07:05:57;;;;;;;7.57;6.70;;;14.80;1.00;;;;;;5066206;28;20485;-78
2023/09/01 07:08:25;;;;;;;6.37;5.77;;;15.00;1.00;;;;;;5049651;27;20931;-78
2023/09/01 07:10:52;;;;;;;7.90;7.20;;;15.10;1.00;;;;;;5045296;28;20468;-81
2023/09/01 07:13:19;;;;;;;8.07;7.43;;;15.20;1.00;;;;;;5045081;28;20507;-79
2023/09/01 07:15:50;;;;;;;6.40;5.80;;;15.30;1.00;;;;;;5041748;28;20530;-80
2023/09/01 07:18:18;;;;;;;8.23;5.80;;;15.30;1.00;;;;;;5053751;28;20477;-80
2023/09/01 07:20:47;;;;;;;6.97;6.10;;;15.40;1.00;;;;;;5044280;28;20499;-79
2023/09/01 07:23:14;;;;;;;6.43;5.83;;;15.50;1.00;;;;;;5042657;28;20588;-79
2023/09/01 07:25:42;;;;;;;6.97;5.83;;;15.60;1.00;;;;;;5044053;28;20519;-80
2023/09/01 07:28:09;;;;;;;5.83;5.30;;;15.80;1.00;;;;;;5043715;28;20974;-79
2023/09/01 07:30:36;;;;;;;5.73;5.23;;;16.10;1.00;;;;;;5060652;28;20512;-78
2023/09/01 07:33:04;;;;;;;5.20;4.50;;;16.20;1.00;;;;;;5060549;28;20499;-80
2023/09/01 07:35:32;;;;;;;6.10;5.17;;;16.30;1.00;;;;;;5063309;27;20489;-78
2023/09/01 07:38:00;;;;;;;10.10;7.03;;;16.40;1.00;;;;;;5065058;28;21247;-80
2023/09/01 07:40:27;;;;;;;8.47;6.40;;;16.50;1.00;;;;;;5066021;28;20463;-79
2023/09/01 07:42:55;;;;;;;5.30;4.90;;;16.70;1.00;;;;;;5066164;28;20554;-79
2023/09/01 07:45:21;;;;;;;8.13;7.10;;;16.70;1.00;;;;;;5060497;28;20520;-79
2023/09/01 07:47:48;;;;;;;6.30;5.70;;;16.80;1.00;;;;;;5066289;28;21001;-79
2023/09/01 07:50:15;;;;;;;5.33;4.93;;;16.90;1.00;;;;;;5063649;28;20486;-80
2023/09/01 07:52:44;;;;;;;5.70;5.17;;;17.00;1.00;;;;;;5046090;28;20468;-79
2023/09/01 07:55:11;;;;;;;7.33;6.47;;;17.00;1.00;;;;;;5045412;28;20519;-85
2023/09/01 07:57:39;;;;;;;6.60;5.80;;;17.10;1.00;;;;;;5044398;28;20539;-86
2023/09/01 08:00:07;;;;;;;8.03;6.40;;;17.10;1.00;;;;;;5049273;28;20430;-84
2023/09/01 08:02:38;;;;;;;6.10;5.50;;;17.00;1.00;;;;;;5029004;28;20652;-80
2023/09/01 08:05:06;;;;;;;6.33;5.80;;;17.00;1.00;;;;;;5043967;28;20481;-83
2023/09/01 08:07:33;;;;;;;8.70;6.27;;;17.10;1.00;;;;;;5022316;28;20562;-78
2023/09/01 08:10:02;;;;;;;5.33;4.93;;;17.20;1.00;;;;;;5039317;28;20567;-83
2023/09/01 08:12:30;;;;;;;7.53;5.43;;;17.30;1.00;;;;;;5037913;28;20417;-83
2023/09/01 08:14:59;;;;;;;5.63;4.90;;;17.40;1.00;;;;;;5047804;28;20465;-85
2023/09/01 08:17:25;;;;;;;6.40;5.80;;;17.60;1.00;;;;;;5050450;28;20475;-83
2023/09/01 08:19:55;;;;;;;4.73;4.27;;;17.70;1.00;;;;;;5052151;28;20552;-85
2023/09/01 08:22:22;;;;;;;5.87;4.80;;;17.80;1.00;;;;;;5057049;28;20476;-84
2023/09/01 08:24:49;;;;;;;7.07;4.90;;;17.80;1.00;;;;;;5067959;28;20476;-85
2023/09/01 08:27:17;;;;;;;6.20;4.93;;;18.00;1.00;;;;;;5067110;28;20469;-84
2023/09/01 08:29:45;;;;;;;5.87;5.20;;;18.00;1.00;;;;;;5070830;28;20546;-80
2023/09/01 08:32:12;;;;;;;5.60;4.93;;;18.00;1.00;;;;;;5070083;27;20452;-82
2023/09/01 08:34:39;;;;;;;5.60;4.97;;;18.10;1.00;;;;;;5059612;28;20468;-84
2023/09/01 08:37:06;;;;;;;5.03;4.20;;;18.30;1.00;;;;;;5065243;28;20452;-82
2023/09/01 08:39:34;;;;;;;3.77;3.47;;;18.40;1.00;;;;;;5050270;28;21343;-83
2023/09/01 08:42:10;;;;;;;5.63;5.00;;;18.60;1.00;;;;;;5054140;28;20523;-84
2023/09/01 08:44:41;;;;;;;4.40;3.93;;;18.70;1.00;;;;;;5047483;28;20468;-82
2023/09/01 08:47:10;;;;;;;5.30;4.40;;;18.80;1.00;;;;;;5054915;28;20477;-81
2023/09/01 08:49:37;;;;;;;6.57;3.83;;;18.90;1.00;;;;;;5053061;28;21343;-82
2023/09/01 08:52:05;;;;;;;4.10;3.63;;;19.00;1.00;;;;;;5047398;28;20460;-83
2023/09/01 08:54:36;;;;;;;4.27;3.93;;;19.20;1.00;;;;;;5058503;28;20466;-84
2023/09/01 08:57:04;;;;;;;4.43;3.73;;;19.30;1.00;;;;;;5048328;28;20546;-82
2023/09/01 08:59:32;;;;;;;4.07;3.67;;;19.40;1.00;;;;;;5066856;28;20568;-84
2023/09/01 09:02:03;;;;;;;5.17;3.87;;;19.60;1.00;;;;;;5082366;27;20471;-84
2023/09/01 09:04:32;;;;;;;7.17;3.30;;;19.70;1.00;;;;;;5061407;27;20470;-80
2023/09/01 09:07:12;;;;;;;5.40;3.67;;;19.90;1.00;;;;;;5050423;28;20485;-84
2023/09/01 09:09:53;;;;;;;4.10;2.57;;;20.10;1.00;;;;;;5051413;28;20472;-84
2023/09/01 09:12:23;;;;;;;6.67;3.63;;;20.20;1.00;;;;;;5057725;28;20487;-81
2023/09/01 09:14:54;;;;;;;4.63;2.93;;;20.30;1.00;;;;;;5049726;28;20492;-86
2023/09/01 09:17:26;;;;;;;4.60;2.93;;;20.30;1.00;;;;;;5048532;28;20473;-80
2023/09/01 09:19:59;;;;;;;4.13;2.70;;;20.50;1.00;;;;;;5051246;28;20464;-82
2023/09/01 09:22:26;;;;;;;5.70;3.27;;;20.80;1.00;;;;;;5054937;28;20407;-82
2023/09/01 09:24:53;;;;;;;12.00;10.70;;;21.10;1.00;;;;;;5062687;28;20505;-83
2023/09/01 09:27:22;;;;;;;6.10;2.90;;;21.90;1.00;;;;;;5052923;28;20470;-83
2023/09/01 09:29:49;;;;;;;3.90;2.47;;;23.00;1.00;;;;;;5048576;28;20564;-80
2023/09/01 09:32:24;;;;;;;4.90;2.47;;;24.50;1.00;;;;;;5060845;28;20461;-83
2023/09/01 09:35:09;;;;;;;4.50;2.87;;;25.90;1.00;;;;;;5064856;28;20922;-82
2023/09/01 09:37:38;;;;;;;3.40;2.20;;;26.60;1.00;;;;;;5066662;28;20555;-84
2023/09/01 09:40:15;;;;;;;2.50;2.30;;;27.40;1.00;;;;;;5070498;28;20485;-81
2023/09/01 09:42:43;;;;;;;3.93;2.10;;;28.00;1.00;;;;;;5055825;28;20491;-82
2023/09/01 09:45:28;;;;;;;2.80;2.43;;;28.80;1.00;;;;;;5051497;28;20465;-83
2023/09/01 09:48:00;;;;;;;2.57;2.37;;;29.10;1.00;;;;;;5052901;28;20459;-82
2023/09/01 09:50:27;;;;;;;4.97;2.67;;;29.30;1.00;;;;;;5049209;28;20465;-82
2023/09/01 09:52:58;;;;;;;3.20;2.70;;;29.50;1.00;;;;;;5052468;28;20508;-84
2023/09/01 09:55:30;;;;;;;5.77;2.97;;;28.60;1.00;;;;;;5048130;28;20476;-82
2023/09/01 09:58:05;;;;;;;5.23;2.50;;;28.20;1.00;;;;;;5045933;28;20474;-83
2023/09/01 10:00:35;;;;;;;2.83;2.50;;;27.90;1.00;;;;;;5050095;28;20464;-83
2023/09/01 10:03:04;;;;;;;3.73;2.63;;;28.60;1.00;;;;;;5047038;28;20540;-81
2023/09/01 10:05:35;;;;;;;4.47;2.27;;;29.50;1.00;;;;;;5053748;28;20966;-83
2023/09/01 10:08:10;;;;;;;4.00;2.80;;;30.50;1.00;;;;;;5070454;28;20658;-85
2023/09/01 10:10:37;;;;;;;4.73;2.50;;;30.00;1.00;;;;;;5069809;28;20526;-84
2023/09/01 10:13:06;;;;;;;2.33;2.13;;;29.30;1.00;;;;;;5069701;28;20462;-85
2023/09/01 10:15:34;;;;;;;5.80;3.00;;;29.80;1.00;;;;;;5069319;28;20978;-81
2023/09/01 10:18:07;;;;;;;5.50;4.93;;;30.60;1.00;;;;;;5050085;28;20594;-82
2023/09/01 10:20:36;;;;;;;4.70;2.53;;;31.00;1.00;;;;;;5046982;28;20468;-81
2023/09/01 10:23:04;;;;;;;5.30;2.43;;;30.80;1.00;;;;;;5047190;28;20514;-81
2023/09/01 10:25:32;;;;;;;2.80;2.07;;;30.40;1.00;;;;;;5061986;28;20494;-81
2023/09/01 10:28:13;;;;;;;4.27;2.77;;;29.30;1.00;;;;;;5052290;28;20480;-78
2023/09/01 10:30:41;;;;;;;3.40;2.37;;;28.30;1.00;;;;;;5048080;28;20538;-88
2023/09/01 10:33:16;;;;;;;3.77;2.63;;;29.00;1.00;;;;;;5068870;28;20455;-82
2023/09/01 10:35:46;;;;;;;3.80;3.50;;;30.20;1.00;;;;;;5065581;28;20485;-82
2023/09/01 10:38:15;;;;;;;3.70;3.27;;;29.90;1.00;;;;;;5068820;28;20461;-80
2023/09/01 10:40:48;;;;;;;4.23;3.83;;;29.30;1.00;;;;;;5062514;28;20474;-82
2023/09/01 10:43:53;;;;;;;3.07;2.77;;;29.50;1.00;;;;;;5065329;28;20615;-79
2023/09/01 10:46:28;;;;;;;3.80;2.90;;;30.20;1.00;;;;;;5059776;28;20445;-83
2023/09/01 10:49:00;;;;;;;4.10;2.50;;;30.50;1.00;;;;;;5063958;28;21054;-84
2023/09/01 10:51:28;;;;;;;2.70;2.30;;;30.60;1.00;;;;;;5070198;27;20459;-85
2023/09/01 10:53:56;;;;;;;7.13;2.83;;;30.90;1.00;;;;;;5054318;28;20461;-81
2023/09/01 10:56:24;;;;;;;3.17;2.47;;;31.40;1.00;;;;;;5063750;28;20470;-85
2023/09/01 10:58:56;;;;;;;2.97;2.70;;;31.10;1.00;;;;;;5067585;28;20440;-85
2023/09/01 11:01:36;;;;;;;2.70;2.50;;;30.80;1.00;;;;;;5072969;28;20456;-81
2023/09/01 11:04:33;;;;;;;3.90;2.77;;;30.90;1.00;;;;;;5071522;28;20411;-83
2023/09/01 11:07:04;;;;;;;3.13;2.57;;;30.20;1.00;;;;;;5072155;27;20449;-83
2023/09/01 11:09:57;;;;;;;3.93;2.60;;;30.00;1.00;;;;;;5071517;28;21055;-84
2023/09/01 11:12:35;;;;;;;5.23;3.20;;;29.60;1.00;;;;;;5070969;28;20577;-85
2023/09/01 11:15:04;;;;;;;3.73;2.90;;;28.50;1.00;;;;;;5064155;28;20559;-84
2023/09/01 11:17:54;;;;;;;4.83;2.77;;;27.90;1.00;;;;;;5069037;28;20474;-85
2023/09/01 11:20:41;;;;;;;6.27;3.30;;;27.50;1.00;;;;;;5071369;27;20525;-86
2023/09/01 11:23:09;;;;;;;3.87;3.30;;;26.50;1.00;;;;;;5058382;28;20458;-86
2023/09/01 11:25:36;;;;;;;3.77;2.90;;;25.80;1.00;;;;;;5051343;28;20437;-85
2023/09/01 11:28:07;;;;;;;5.53;2.57;;;25.40;1.00;;;;;;5050859;28;20503;-85
2023/09/01 11:30:34;;;;;;;5.93;2.90;;;25.00;1.00;;;;;;5052092;28;20463;-83
2023/09/01 11:33:13;;;;;;;4.97;3.00;;;24.80;1.00;;;;;;5046123;28;20465;-85
2023/09/01 11:35:42;;;;;;;3.13;2.90;;;26.10;1.00;;;;;;5054043;28;20465;-79
2023/09/01 11:38:18;;;;;;;6.30;3.40;;;27.80;1.00;;;;;;5053334;28;20488;-78
2023/09/01 11:40:51;;;;;;;2.67;2.43;;;29.50;1.00;;;;;;5047363;28;20840;-76
2023/09/01 11:43:19;;;;;;;3.93;3.30;;;30.00;1.00;;;;;;5047569;28;20892;-77
2023/09/01 11:45:47;;;;;;;5.20;3.00;;;29.70;1.00;;;;;;5044794;28;20534;-78
2023/09/01 11:48:15;;;;;;;3.40;3.03;;;28.90;1.00;;;;;;5045065;28;20555;-79
2023/09/01 11:50:47;;;;;;;4.37;3.57;;;27.90;1.00;;;;;;5043704;28;20655;-79
2023/09/01 11:53:23;;;;;;;3.63;2.73;;;27.30;1.00;;;;;;5043018;28;20466;-78
2023/09/01 11:55:51;;;;;;;3.13;2.67;;;27.20;1.00;;;;;;5043262;28;20956;-77
2023/09/01 11:58:18;;;;;;;4.87;2.80;;;27.50;1.00;;;;;;5044356;28;20487;-78
2023/09/01 12:00:47;;;;;;;4.10;3.33;;;27.60;1.00;;;;;;5040862;28;20540;-80
2023/09/01 12:03:14;;;;;;;3.33;2.33;;;27.90;1.00;;;;;;5057844;28;20989;-79
2023/09/01 12:05:44;;;;;;;3.20;2.63;;;28.10;1.00;;;;;;5065963;28;20470;-82
2023/09/01 12:08:12;;;;;;;3.43;2.80;;;27.80;1.00;;;;;;5060438;28;20821;-78
2023/09/01 12:10:39;;;;;;;3.57;2.93;;;27.60;1.00;;;;;;5061775;28;20606;-79
2023/09/01 12:13:11;;;;;;;5.33;2.90;;;27.90;1.00;;;;;;5066362;27;20470;-79
2023/09/01 12:15:59;;;;;;;4.87;2.73;;;28.00;1.00;;;;;;5065779;27;20454;-78
2023/09/01 12:18:31;;;;;;;3.90;2.37;;;27.60;1.00;;;;;;5055683;27;20594;-78
2023/09/01 12:20:58;;;;;;;3.13;2.53;;;27.70;1.00;;;;;;5041486;28;20551;-77
2023/09/01 12:23:31;;;;;;;3.37;3.07;;;28.30;1.00;;;;;;5042055;28;20885;-80
2023/09/01 12:25:59;;;;;;;3.33;3.03;;;29.10;1.00;;;;;;5056463;28;20863;-77
2023/09/01 12:28:27;;;;;;;4.43;3.00;;;28.90;1.00;;;;;;5064146;28;20513;-78
2023/09/01 12:30:54;;;;;;;4.80;3.00;;;29.30;1.00;;;;;;5064596;28;20557;-78
2023/09/01 12:33:21;;;;;;;3.10;2.90;;;29.90;1.00;;;;;;5064658;28;20470;-79
2023/09/01 12:35:49;;;;;;;3.63;2.77;;;31.30;1.00;;;;;;5067225;28;20562;-78
2023/09/01 12:38:16;;;;;;;4.37;3.97;;;32.20;1.00;;;;;;5065046;28;20514;-78
2023/09/01 12:40:47;;;;;;;2.77;2.57;;;33.50;1.00;;;;;;5064840;28;20462;-78
2023/09/01 12:43:15;;;;;;;3.47;3.17;;;34.40;1.00;;;;;;5066186;28;20466;-79
2023/09/01 12:45:42;;;;;;;5.07;3.47;;;34.90;1.00;;;;;;5062648;28;20533;-78
2023/09/01 12:48:10;;;;;;;4.63;3.30;;;35.10;1.00;;;;;;5068513;27;20457;-83
2023/09/01 12:50:51;;;;;;;2.60;2.00;;;35.30;1.00;;;;;;5054535;28;20451;-85
2023/09/01 12:53:18;;;;;;;3.10;2.80;;;34.70;1.00;;;;;;5050649;28;20433;-84
2023/09/01 12:55:52;;;;;;;5.50;3.07;;;34.50;1.00;;;;;;5055082;28;20468;-84
2023/09/01 12:58:28;;;;;;;3.30;3.00;;;34.50;1.00;;;;;;5052169;28;20530;-78
2023/09/01 13:00:55;;;;;;;2.80;2.50;;;34.30;1.00;;;;;;5044462;28;20464;-78
2023/09/01 13:03:22;;;;;;;5.50;2.70;;;34.20;1.00;;;;;;5048746;28;20557;-77
2023/09/01 13:05:49;;;;;;;4.93;2.80;;;33.90;1.00;;;;;;5079314;27;20463;-75
2023/09/01 13:08:16;;;;;;;2.87;2.67;;;33.90;1.00;;;;;;5055554;27;20475;-76
2023/09/01 13:10:43;;;;;;;6.30;3.70;;;33.30;1.00;;;;;;5049585;28;21192;-78